sensor_id;sensor_type;location;lat;lon;timestamp;P1;durP1;ratioP1;P2;durP2;ratioP2
37483;SDS011;23337;52.212;9.926;2022-09-09T00:01:01;1.30;;;0.80;;
37483;SDS011;23337;52.212;9.926;2022-09-09T00:03:27;3.20;;;0.70;;
37483;SDS011;23337;52.212;9.926;2022-09-09T00:08:38;1.00;;;0.50;;
37483;SDS011;23337;52.212;9.926;2022-09-09T00:11:07;1.57;;;0.70;;
37483;SDS011;23337;52.212;9.926;2022-09-09T00:13:40;1.97;;;0.83;;
37483;SDS011;23337;52.212;9.926;2022-09-09T00:16:12;1.87;;;1.27;;
37483;SDS011;23337;52.212;9.926;2022-09-09T00:21:29;2.13;;;1.00;;
37483;SDS011;23337;52.212;9.926;2022-09-09T00:23:57;0.80;;;0.77;;
37483;SDS011;23337;52.212;9.926;2022-09-09T00:26:40;1.63;;;0.67;;
37483;SDS011;23337;52.212;9.926;2022-09-09T00:31:40;2.30;;;0.70;;
37483;SDS011;23337;52.212;9.926;2022-09-09T00:34:13;2.23;;;0.70;;
37483;SDS011;23337;52.212;9.926;2022-09-09T00:36:41;1.70;;;0.60;;
37483;SDS011;23337;52.212;9.926;2022-09-09T00:39:20;2.13;;;1.03;;
37483;SDS011;23337;52.212;9.926;2022-09-09T00:42:10;3.20;;;0.83;;
37483;SDS011;23337;52.212;9.926;2022-09-09T00:44:37;2.17;;;1.00;;
37483;SDS011;23337;52.212;9.926;2022-09-09T00:49:58;2.10;;;1.00;;
37483;SDS011;23337;52.212;9.926;2022-09-09T00:52:39;1.27;;;0.80;;
37483;SDS011;23337;52.212;9.926;2022-09-09T00:55:12;1.23;;;0.80;;
37483;SDS011;23337;52.212;9.926;2022-09-09T00:57:40;2.27;;;1.00;;
37483;SDS011;23337;52.212;9.926;2022-09-09T01:00:24;1.07;;;0.63;;
37483;SDS011;23337;52.212;9.926;2022-09-09T01:02:52;0.97;;;0.60;;
37483;SDS011;23337;52.212;9.926;2022-09-09T01:05:26;2.47;;;0.90;;
37483;SDS011;23337;52.212;9.926;2022-09-09T01:07:54;1.97;;;0.77;;
37483;SDS011;23337;52.212;9.926;2022-09-09T01:10:27;0.63;;;0.60;;
37483;SDS011;23337;52.212;9.926;2022-09-09T01:12:56;2.27;;;0.73;;
37483;SDS011;23337;52.212;9.926;2022-09-09T01:15:25;1.00;;;0.60;;
37483;SDS011;23337;52.212;9.926;2022-09-09T01:20:26;1.30;;;0.60;;
37483;SDS011;23337;52.212;9.926;2022-09-09T01:28:10;2.40;;;0.60;;
37483;SDS011;23337;52.212;9.926;2022-09-09T01:30:39;2.93;;;0.83;;
37483;SDS011;23337;52.212;9.926;2022-09-09T01:33:07;1.33;;;0.60;;
37483;SDS011;23337;52.212;9.926;2022-09-09T01:38:07;2.80;;;1.00;;
37483;SDS011;23337;52.212;9.926;2022-09-09T01:40:33;1.90;;;1.00;;
37483;SDS011;23337;52.212;9.926;2022-09-09T01:43:00;4.43;;;1.10;;
37483;SDS011;23337;52.212;9.926;2022-09-09T01:45:26;2.27;;;1.30;;
37483;SDS011;23337;52.212;9.926;2022-09-09T01:47:52;2.20;;;1.20;;
37483;SDS011;23337;52.212;9.926;2022-09-09T01:50:19;2.87;;;1.10;;
37483;SDS011;23337;52.212;9.926;2022-09-09T01:52:46;3.60;;;0.97;;
37483;SDS011;23337;52.212;9.926;2022-09-09T01:55:13;2.03;;;1.10;;
37483;SDS011;23337;52.212;9.926;2022-09-09T02:00:17;2.97;;;1.07;;
37483;SDS011;23337;52.212;9.926;2022-09-09T02:07:40;2.40;;;1.10;;
37483;SDS011;23337;52.212;9.926;2022-09-09T02:12:32;1.80;;;1.13;;
37483;SDS011;23337;52.212;9.926;2022-09-09T02:15:03;2.97;;;1.10;;
37483;SDS011;23337;52.212;9.926;2022-09-09T02:17:31;2.07;;;1.10;;
37483;SDS011;23337;52.212;9.926;2022-09-09T02:20:03;1.83;;;0.80;;
37483;SDS011;23337;52.212;9.926;2022-09-09T02:22:31;2.87;;;0.93;;
37483;SDS011;23337;52.212;9.926;2022-09-09T02:24:59;2.87;;;0.73;;
37483;SDS011;23337;52.212;9.926;2022-09-09T02:27:26;2.43;;;0.60;;
37483;SDS011;23337;52.212;9.926;2022-09-09T02:29:53;1.90;;;0.70;;
37483;SDS011;23337;52.212;9.926;2022-09-09T02:32:22;3.40;;;0.90;;
37483;SDS011;23337;52.212;9.926;2022-09-09T02:34:49;3.30;;;0.77;;
37483;SDS011;23337;52.212;9.926;2022-09-09T02:37:17;0.90;;;0.50;;
37483;SDS011;23337;52.212;9.926;2022-09-09T02:39:44;2.83;;;0.70;;
37483;SDS011;23337;52.212;9.926;2022-09-09T02:42:10;2.50;;;0.97;;
37483;SDS011;23337;52.212;9.926;2022-09-09T02:44:36;2.80;;;1.07;;
37483;SDS011;23337;52.212;9.926;2022-09-09T02:47:07;1.93;;;0.90;;
37483;SDS011;23337;52.212;9.926;2022-09-09T02:52:08;1.87;;;0.77;;
37483;SDS011;23337;52.212;9.926;2022-09-09T02:54:38;3.67;;;0.80;;
37483;SDS011;23337;52.212;9.926;2022-09-09T02:57:12;2.90;;;1.13;;
37483;SDS011;23337;52.212;9.926;2022-09-09T02:59:39;4.43;;;1.17;;
37483;SDS011;23337;52.212;9.926;2022-09-09T03:02:06;2.80;;;0.90;;
37483;SDS011;23337;52.212;9.926;2022-09-09T03:04:32;1.47;;;0.80;;
37483;SDS011;23337;52.212;9.926;2022-09-09T03:06:58;3.17;;;1.00;;
37483;SDS011;23337;52.212;9.926;2022-09-09T03:09:24;2.57;;;1.40;;
37483;SDS011;23337;52.212;9.926;2022-09-09T03:11:53;2.93;;;0.80;;
37483;SDS011;23337;52.212;9.926;2022-09-09T03:14:20;1.37;;;0.90;;
37483;SDS011;23337;52.212;9.926;2022-09-09T03:16:49;2.33;;;0.97;;
37483;SDS011;23337;52.212;9.926;2022-09-09T03:19:15;2.13;;;1.07;;
37483;SDS011;23337;52.212;9.926;2022-09-09T03:21:41;2.23;;;0.80;;
37483;SDS011;23337;52.212;9.926;2022-09-09T03:24:07;3.37;;;0.90;;
37483;SDS011;23337;52.212;9.926;2022-09-09T03:26:34;2.30;;;0.70;;
37483;SDS011;23337;52.212;9.926;2022-09-09T03:29:00;1.97;;;1.13;;
37483;SDS011;23337;52.212;9.926;2022-09-09T03:31:26;1.60;;;0.77;;
37483;SDS011;23337;52.212;9.926;2022-09-09T03:33:55;3.00;;;1.07;;
37483;SDS011;23337;52.212;9.926;2022-09-09T03:36:21;3.23;;;1.60;;
37483;SDS011;23337;52.212;9.926;2022-09-09T03:38:47;4.17;;;0.90;;
37483;SDS011;23337;52.212;9.926;2022-09-09T03:41:13;2.23;;;1.10;;
37483;SDS011;23337;52.212;9.926;2022-09-09T03:43:39;1.63;;;0.53;;
37483;SDS011;23337;52.212;9.926;2022-09-09T03:46:06;2.03;;;0.60;;
37483;SDS011;23337;52.212;9.926;2022-09-09T03:48:32;3.40;;;1.10;;
37483;SDS011;23337;52.212;9.926;2022-09-09T03:50:58;2.83;;;0.90;;
37483;SDS011;23337;52.212;9.926;2022-09-09T03:53:26;1.73;;;0.77;;
37483;SDS011;23337;52.212;9.926;2022-09-09T03:55:53;3.03;;;1.00;;
37483;SDS011;23337;52.212;9.926;2022-09-09T03:58:20;3.57;;;0.87;;
37483;SDS011;23337;52.212;9.926;2022-09-09T04:00:53;2.17;;;0.87;;
37483;SDS011;23337;52.212;9.926;2022-09-09T04:03:19;3.07;;;1.13;;
37483;SDS011;23337;52.212;9.926;2022-09-09T04:05:48;3.50;;;1.03;;
37483;SDS011;23337;52.212;9.926;2022-09-09T04:08:14;3.10;;;1.30;;
37483;SDS011;23337;52.212;9.926;2022-09-09T04:10:40;2.73;;;0.77;;
37483;SDS011;23337;52.212;9.926;2022-09-09T04:13:07;1.67;;;0.70;;
37483;SDS011;23337;52.212;9.926;2022-09-09T04:15:33;2.17;;;0.70;;
37483;SDS011;23337;52.212;9.926;2022-09-09T04:18:00;2.53;;;1.20;;
37483;SDS011;23337;52.212;9.926;2022-09-09T04:20:26;1.97;;;1.00;;
37483;SDS011;23337;52.212;9.926;2022-09-09T04:22:52;1.57;;;0.77;;
37483;SDS011;23337;52.212;9.926;2022-09-09T04:25:18;3.40;;;0.97;;
37483;SDS011;23337;52.212;9.926;2022-09-09T04:27:44;3.50;;;0.90;;
37483;SDS011;23337;52.212;9.926;2022-09-09T04:30:10;1.90;;;0.93;;
37483;SDS011;23337;52.212;9.926;2022-09-09T04:32:37;1.50;;;0.80;;
37483;SDS011;23337;52.212;9.926;2022-09-09T04:35:03;3.23;;;1.30;;
37483;SDS011;23337;52.212;9.926;2022-09-09T04:37:29;2.77;;;1.10;;
37483;SDS011;23337;52.212;9.926;2022-09-09T04:39:55;4.07;;;1.27;;
37483;SDS011;23337;52.212;9.926;2022-09-09T04:42:21;4.17;;;1.03;;
37483;SDS011;23337;52.212;9.926;2022-09-09T04:44:47;5.27;;;1.57;;
37483;SDS011;23337;52.212;9.926;2022-09-09T04:47:13;3.57;;;1.20;;
37483;SDS011;23337;52.212;9.926;2022-09-09T04:49:39;2.77;;;1.20;;
37483;SDS011;23337;52.212;9.926;2022-09-09T04:52:06;3.33;;;1.43;;
37483;SDS011;23337;52.212;9.926;2022-09-09T04:54:32;2.97;;;1.20;;
37483;SDS011;23337;52.212;9.926;2022-09-09T04:56:58;8.73;;;1.60;;
37483;SDS011;23337;52.212;9.926;2022-09-09T04:59:24;2.57;;;1.10;;
37483;SDS011;23337;52.212;9.926;2022-09-09T05:01:50;2.17;;;0.97;;
37483;SDS011;23337;52.212;9.926;2022-09-09T05:04:16;4.23;;;1.30;;
37483;SDS011;23337;52.212;9.926;2022-09-09T05:06:42;4.33;;;1.27;;
37483;SDS011;23337;52.212;9.926;2022-09-09T05:09:08;2.87;;;1.07;;
37483;SDS011;23337;52.212;9.926;2022-09-09T05:11:34;3.60;;;0.97;;
37483;SDS011;23337;52.212;9.926;2022-09-09T05:14:04;3.37;;;1.17;;
37483;SDS011;23337;52.212;9.926;2022-09-09T05:16:30;1.27;;;0.93;;
37483;SDS011;23337;52.212;9.926;2022-09-09T05:18:56;1.83;;;1.20;;
37483;SDS011;23337;52.212;9.926;2022-09-09T05:21:23;3.53;;;1.30;;
37483;SDS011;23337;52.212;9.926;2022-09-09T05:23:51;6.37;;;1.13;;
37483;SDS011;23337;52.212;9.926;2022-09-09T05:26:18;3.13;;;1.53;;
37483;SDS011;23337;52.212;9.926;2022-09-09T05:28:45;2.73;;;1.10;;
37483;SDS011;23337;52.212;9.926;2022-09-09T05:31:12;7.40;;;1.27;;
37483;SDS011;23337;52.212;9.926;2022-09-09T05:33:39;5.13;;;1.50;;
37483;SDS011;23337;52.212;9.926;2022-09-09T05:36:09;3.07;;;1.37;;
37483;SDS011;23337;52.212;9.926;2022-09-09T05:38:38;10.77;;;1.97;;
37483;SDS011;23337;52.212;9.926;2022-09-09T05:41:04;4.67;;;2.17;;
37483;SDS011;23337;52.212;9.926;2022-09-09T05:43:31;6.20;;;2.17;;
37483;SDS011;23337;52.212;9.926;2022-09-09T05:48:36;5.60;;;1.87;;
37483;SDS011;23337;52.212;9.926;2022-09-09T05:51:03;4.43;;;1.73;;
37483;SDS011;23337;52.212;9.926;2022-09-09T05:53:29;6.13;;;2.10;;
37483;SDS011;23337;52.212;9.926;2022-09-09T05:56:03;5.37;;;2.00;;
37483;SDS011;23337;52.212;9.926;2022-09-09T05:58:32;14.90;;;2.23;;
37483;SDS011;23337;52.212;9.926;2022-09-09T06:01:06;4.40;;;1.40;;
37483;SDS011;23337;52.212;9.926;2022-09-09T06:03:33;2.63;;;1.30;;
37483;SDS011;23337;52.212;9.926;2022-09-09T06:06:00;4.37;;;1.53;;
37483;SDS011;23337;52.212;9.926;2022-09-09T06:08:26;4.80;;;1.47;;
37483;SDS011;23337;52.212;9.926;2022-09-09T06:10:52;3.57;;;1.33;;
37483;SDS011;23337;52.212;9.926;2022-09-09T06:13:18;6.20;;;1.90;;
37483;SDS011;23337;52.212;9.926;2022-09-09T06:15:53;6.60;;;1.70;;
37483;SDS011;23337;52.212;9.926;2022-09-09T06:18:19;5.90;;;2.30;;
37483;SDS011;23337;52.212;9.926;2022-09-09T06:23:20;5.77;;;2.70;;
37483;SDS011;23337;52.212;9.926;2022-09-09T06:25:46;7.93;;;3.07;;
37483;SDS011;23337;52.212;9.926;2022-09-09T06:28:13;7.70;;;2.93;;
37483;SDS011;23337;52.212;9.926;2022-09-09T06:30:39;4.00;;;2.07;;
37483;SDS011;23337;52.212;9.926;2022-09-09T06:33:06;3.50;;;1.50;;
37483;SDS011;23337;52.212;9.926;2022-09-09T06:35:32;6.13;;;2.83;;
37483;SDS011;23337;52.212;9.926;2022-09-09T06:37:58;8.40;;;2.97;;
37483;SDS011;23337;52.212;9.926;2022-09-09T06:40:24;5.67;;;2.77;;
37483;SDS011;23337;52.212;9.926;2022-09-09T06:42:50;4.97;;;3.23;;
37483;SDS011;23337;52.212;9.926;2022-09-09T06:45:16;8.03;;;4.13;;
37483;SDS011;23337;52.212;9.926;2022-09-09T06:47:42;9.27;;;6.47;;
37483;SDS011;23337;52.212;9.926;2022-09-09T06:50:09;12.27;;;7.90;;
37483;SDS011;23337;52.212;9.926;2022-09-09T06:52:36;10.57;;;5.23;;
37483;SDS011;23337;52.212;9.926;2022-09-09T06:55:02;6.83;;;3.50;;
37483;SDS011;23337;52.212;9.926;2022-09-09T06:57:28;4.13;;;1.90;;
37483;SDS011;23337;52.212;9.926;2022-09-09T06:59:54;6.73;;;1.93;;
37483;SDS011;23337;52.212;9.926;2022-09-09T07:02:20;4.23;;;1.37;;
37483;SDS011;23337;52.212;9.926;2022-09-09T07:04:46;4.47;;;1.10;;
37483;SDS011;23337;52.212;9.926;2022-09-09T07:07:12;2.00;;;1.03;;
37483;SDS011;23337;52.212;9.926;2022-09-09T07:09:40;1.93;;;0.70;;
37483;SDS011;23337;52.212;9.926;2022-09-09T07:12:06;3.63;;;1.60;;
37483;SDS011;23337;52.212;9.926;2022-09-09T07:14:32;4.97;;;1.40;;
37483;SDS011;23337;52.212;9.926;2022-09-09T07:17:01;3.13;;;1.33;;
37483;SDS011;23337;52.212;9.926;2022-09-09T07:19:26;4.40;;;1.10;;
37483;SDS011;23337;52.212;9.926;2022-09-09T07:21:52;3.90;;;1.20;;
37483;SDS011;23337;52.212;9.926;2022-09-09T07:24:18;3.87;;;1.20;;
37483;SDS011;23337;52.212;9.926;2022-09-09T07:26:44;2.60;;;1.00;;
37483;SDS011;23337;52.212;9.926;2022-09-09T07:29:11;2.93;;;1.30;;
37483;SDS011;23337;52.212;9.926;2022-09-09T07:31:38;3.33;;;1.47;;
37483;SDS011;23337;52.212;9.926;2022-09-09T07:34:05;2.67;;;0.90;;
37483;SDS011;23337;52.212;9.926;2022-09-09T07:36:32;4.07;;;1.50;;
37483;SDS011;23337;52.212;9.926;2022-09-09T07:39:08;2.80;;;1.00;;
37483;SDS011;23337;52.212;9.926;2022-09-09T07:41:38;3.00;;;0.97;;
37483;SDS011;23337;52.212;9.926;2022-09-09T07:44:06;5.90;;;1.37;;
37483;SDS011;23337;52.212;9.926;2022-09-09T07:46:32;2.83;;;0.90;;
37483;SDS011;23337;52.212;9.926;2022-09-09T07:48:59;1.77;;;1.03;;
37483;SDS011;23337;52.212;9.926;2022-09-09T07:51:27;6.50;;;1.50;;
37483;SDS011;23337;52.212;9.926;2022-09-09T07:54:00;5.90;;;1.10;;
37483;SDS011;23337;52.212;9.926;2022-09-09T07:56:27;4.23;;;1.07;;
37483;SDS011;23337;52.212;9.926;2022-09-09T07:58:54;2.70;;;1.10;;
37483;SDS011;23337;52.212;9.926;2022-09-09T08:01:21;3.77;;;1.43;;
37483;SDS011;23337;52.212;9.926;2022-09-09T08:03:52;2.33;;;1.00;;
37483;SDS011;23337;52.212;9.926;2022-09-09T08:06:18;2.10;;;0.90;;
37483;SDS011;23337;52.212;9.926;2022-09-09T08:08:44;5.17;;;1.30;;
37483;SDS011;23337;52.212;9.926;2022-09-09T08:11:13;3.13;;;1.13;;
37483;SDS011;23337;52.212;9.926;2022-09-09T08:13:39;4.00;;;1.10;;
37483;SDS011;23337;52.212;9.926;2022-09-09T08:18:34;2.27;;;1.00;;
37483;SDS011;23337;52.212;9.926;2022-09-09T08:21:11;2.10;;;0.90;;
37483;SDS011;23337;52.212;9.926;2022-09-09T08:23:41;3.37;;;0.93;;
37483;SDS011;23337;52.212;9.926;2022-09-09T08:26:09;3.20;;;1.00;;
37483;SDS011;23337;52.212;9.926;2022-09-09T08:28:36;2.13;;;1.00;;
37483;SDS011;23337;52.212;9.926;2022-09-09T08:31:06;2.73;;;0.60;;
37483;SDS011;23337;52.212;9.926;2022-09-09T08:33:32;2.17;;;0.77;;
37483;SDS011;23337;52.212;9.926;2022-09-09T08:35:58;1.83;;;1.10;;
37483;SDS011;23337;52.212;9.926;2022-09-09T08:38:24;5.23;;;1.17;;
37483;SDS011;23337;52.212;9.926;2022-09-09T08:40:50;1.93;;;0.80;;
37483;SDS011;23337;52.212;9.926;2022-09-09T08:43:20;3.53;;;0.90;;
37483;SDS011;23337;52.212;9.926;2022-09-09T08:45:50;2.40;;;0.80;;
37483;SDS011;23337;52.212;9.926;2022-09-09T08:48:32;3.33;;;0.70;;
37483;SDS011;23337;52.212;9.926;2022-09-09T08:51:04;2.93;;;1.40;;
37483;SDS011;23337;52.212;9.926;2022-09-09T08:53:39;2.43;;;1.30;;
37483;SDS011;23337;52.212;9.926;2022-09-09T08:56:12;4.10;;;1.00;;
37483;SDS011;23337;52.212;9.926;2022-09-09T08:58:43;2.27;;;0.80;;
37483;SDS011;23337;52.212;9.926;2022-09-09T09:12:08;3.57;;;1.00;;
37483;SDS011;23337;52.212;9.926;2022-09-09T09:14:37;2.50;;;0.70;;
37483;SDS011;23337;52.212;9.926;2022-09-09T09:17:04;2.97;;;0.90;;
37483;SDS011;23337;52.212;9.926;2022-09-09T09:19:34;3.50;;;0.97;;
37483;SDS011;23337;52.212;9.926;2022-09-09T09:27:13;2.40;;;1.20;;
37483;SDS011;23337;52.212;9.926;2022-09-09T09:29:40;2.87;;;0.83;;
37483;SDS011;23337;52.212;9.926;2022-09-09T09:32:08;2.23;;;0.70;;
37483;SDS011;23337;52.212;9.926;2022-09-09T09:34:37;2.67;;;0.70;;
37483;SDS011;23337;52.212;9.926;2022-09-09T09:37:07;4.23;;;1.33;;
37483;SDS011;23337;52.212;9.926;2022-09-09T09:39:37;2.90;;;1.27;;
37483;SDS011;23337;52.212;9.926;2022-09-09T09:42:09;4.77;;;0.70;;
37483;SDS011;23337;52.212;9.926;2022-09-09T09:44:39;3.30;;;0.80;;
37483;SDS011;23337;52.212;9.926;2022-09-09T09:47:06;3.43;;;1.07;;
37483;SDS011;23337;52.212;9.926;2022-09-09T09:49:33;3.43;;;1.13;;
37483;SDS011;23337;52.212;9.926;2022-09-09T09:52:05;4.67;;;1.03;;
37483;SDS011;23337;52.212;9.926;2022-09-09T09:54:33;3.47;;;1.20;;
37483;SDS011;23337;52.212;9.926;2022-09-09T09:57:34;2.87;;;1.07;;
37483;SDS011;23337;52.212;9.926;2022-09-09T10:00:27;2.93;;;1.17;;
37483;SDS011;23337;52.212;9.926;2022-09-09T10:02:46;3.37;;;1.30;;
37483;SDS011;23337;52.212;9.926;2022-09-09T10:07:38;3.17;;;1.03;;
37483;SDS011;23337;52.212;9.926;2022-09-09T10:10:04;2.87;;;0.90;;
37483;SDS011;23337;52.212;9.926;2022-09-09T10:12:37;3.03;;;1.00;;
37483;SDS011;23337;52.212;9.926;2022-09-09T10:17:55;2.77;;;0.77;;
37483;SDS011;23337;52.212;9.926;2022-09-09T10:23:02;6.33;;;1.20;;
37483;SDS011;23337;52.212;9.926;2022-09-09T10:25:33;4.47;;;0.90;;
37483;SDS011;23337;52.212;9.926;2022-09-09T10:30:35;2.30;;;0.87;;
37483;SDS011;23337;52.212;9.926;2022-09-09T10:38:29;4.23;;;1.63;;
37483;SDS011;23337;52.212;9.926;2022-09-09T10:41:00;2.07;;;0.90;;
37483;SDS011;23337;52.212;9.926;2022-09-09T10:46:15;2.80;;;0.67;;
37483;SDS011;23337;52.212;9.926;2022-09-09T10:48:54;2.97;;;0.93;;
37483;SDS011;23337;52.212;9.926;2022-09-09T10:51:28;1.67;;;0.50;;
37483;SDS011;23337;52.212;9.926;2022-09-09T10:56:22;3.13;;;0.73;;
37483;SDS011;23337;52.212;9.926;2022-09-09T10:58:53;3.57;;;0.83;;
37483;SDS011;23337;52.212;9.926;2022-09-09T11:01:25;1.80;;;0.60;;
37483;SDS011;23337;52.212;9.926;2022-09-09T11:03:54;3.20;;;0.70;;
37483;SDS011;23337;52.212;9.926;2022-09-09T11:06:23;2.70;;;0.97;;
37483;SDS011;23337;52.212;9.926;2022-09-09T11:08:51;2.80;;;0.80;;
37483;SDS011;23337;52.212;9.926;2022-09-09T11:14:01;3.40;;;0.77;;
37483;SDS011;23337;52.212;9.926;2022-09-09T11:16:29;3.50;;;1.00;;
37483;SDS011;23337;52.212;9.926;2022-09-09T11:19:03;2.37;;;0.70;;
37483;SDS011;23337;52.212;9.926;2022-09-09T11:21:31;2.37;;;1.17;;
37483;SDS011;23337;52.212;9.926;2022-09-09T11:24:04;3.07;;;0.90;;
37483;SDS011;23337;52.212;9.926;2022-09-09T11:26:38;4.07;;;1.00;;
37483;SDS011;23337;52.212;9.926;2022-09-09T11:29:17;1.80;;;0.60;;
37483;SDS011;23337;52.212;9.926;2022-09-09T11:32:11;1.37;;;0.40;;
37483;SDS011;23337;52.212;9.926;2022-09-09T11:42:35;1.33;;;0.70;;
37483;SDS011;23337;52.212;9.926;2022-09-09T11:45:11;2.43;;;0.70;;
37483;SDS011;23337;52.212;9.926;2022-09-09T11:47:52;1.80;;;0.50;;
37483;SDS011;23337;52.212;9.926;2022-09-09T11:52:48;3.10;;;0.60;;
37483;SDS011;23337;52.212;9.926;2022-09-09T11:55:30;3.67;;;0.50;;
37483;SDS011;23337;52.212;9.926;2022-09-09T11:58:02;1.77;;;0.47;;
37483;SDS011;23337;52.212;9.926;2022-09-09T12:03:02;2.23;;;0.90;;
37483;SDS011;23337;52.212;9.926;2022-09-09T12:05:40;1.67;;;0.70;;
37483;SDS011;23337;52.212;9.926;2022-09-09T12:08:09;2.60;;;0.60;;
37483;SDS011;23337;52.212;9.926;2022-09-09T12:10:38;1.73;;;0.60;;
37483;SDS011;23337;52.212;9.926;2022-09-09T12:13:09;3.70;;;0.50;;
37483;SDS011;23337;52.212;9.926;2022-09-09T12:15:54;1.83;;;0.73;;
37483;SDS011;23337;52.212;9.926;2022-09-09T12:18:24;0.53;;;0.30;;
37483;SDS011;23337;52.212;9.926;2022-09-09T12:20:52;2.70;;;0.47;;
37483;SDS011;23337;52.212;9.926;2022-09-09T12:28:19;2.57;;;0.63;;
37483;SDS011;23337;52.212;9.926;2022-09-09T12:33:12;0.77;;;0.53;;
37483;SDS011;23337;52.212;9.926;2022-09-09T12:35:40;2.03;;;0.50;;
37483;SDS011;23337;52.212;9.926;2022-09-09T12:38:07;2.83;;;0.43;;
37483;SDS011;23337;52.212;9.926;2022-09-09T12:40:37;2.60;;;0.80;;
37483;SDS011;23337;52.212;9.926;2022-09-09T12:43:16;2.50;;;0.70;;
37483;SDS011;23337;52.212;9.926;2022-09-09T12:45:43;1.37;;;0.77;;
37483;SDS011;23337;52.212;9.926;2022-09-09T12:48:10;1.43;;;0.50;;
37483;SDS011;23337;52.212;9.926;2022-09-09T12:50:37;5.03;;;0.87;;
37483;SDS011;23337;52.212;9.926;2022-09-09T12:53:09;1.67;;;0.60;;
37483;SDS011;23337;52.212;9.926;2022-09-09T12:55:36;1.73;;;0.80;;
37483;SDS011;23337;52.212;9.926;2022-09-09T12:58:03;2.80;;;0.70;;
37483;SDS011;23337;52.212;9.926;2022-09-09T13:00:31;1.63;;;0.90;;
37483;SDS011;23337;52.212;9.926;2022-09-09T13:02:58;1.40;;;0.80;;
37483;SDS011;23337;52.212;9.926;2022-09-09T13:07:50;2.77;;;0.97;;
37483;SDS011;23337;52.212;9.926;2022-09-09T13:10:21;1.97;;;0.97;;
37483;SDS011;23337;52.212;9.926;2022-09-09T13:12:48;2.10;;;0.70;;
37483;SDS011;23337;52.212;9.926;2022-09-09T13:15:24;1.80;;;0.80;;
37483;SDS011;23337;52.212;9.926;2022-09-09T13:17:59;3.27;;;0.93;;
37483;SDS011;23337;52.212;9.926;2022-09-09T13:20:26;1.47;;;0.60;;
37483;SDS011;23337;52.212;9.926;2022-09-09T13:22:52;2.47;;;0.70;;
37483;SDS011;23337;52.212;9.926;2022-09-09T13:25:28;3.40;;;0.70;;
37483;SDS011;23337;52.212;9.926;2022-09-09T13:27:59;4.00;;;1.00;;
37483;SDS011;23337;52.212;9.926;2022-09-09T13:35:45;1.10;;;0.60;;
37483;SDS011;23337;52.212;9.926;2022-09-09T13:38:15;3.80;;;0.77;;
37483;SDS011;23337;52.212;9.926;2022-09-09T13:40:52;3.23;;;0.63;;
37483;SDS011;23337;52.212;9.926;2022-09-09T13:43:20;8.67;;;0.90;;
37483;SDS011;23337;52.212;9.926;2022-09-09T13:45:54;4.07;;;0.80;;
37483;SDS011;23337;52.212;9.926;2022-09-09T13:48:21;2.53;;;1.03;;
37483;SDS011;23337;52.212;9.926;2022-09-09T13:50:54;1.03;;;0.67;;
37483;SDS011;23337;52.212;9.926;2022-09-09T13:53:20;2.20;;;0.67;;
37483;SDS011;23337;52.212;9.926;2022-09-09T13:55:46;2.23;;;1.00;;
37483;SDS011;23337;52.212;9.926;2022-09-09T13:58:15;3.23;;;1.00;;
37483;SDS011;23337;52.212;9.926;2022-09-09T14:00:43;2.10;;;0.80;;
37483;SDS011;23337;52.212;9.926;2022-09-09T14:03:09;2.27;;;0.87;;
37483;SDS011;23337;52.212;9.926;2022-09-09T14:05:35;5.20;;;1.07;;
37483;SDS011;23337;52.212;9.926;2022-09-09T14:08:05;2.00;;;0.80;;
37483;SDS011;23337;52.212;9.926;2022-09-09T14:10:32;4.63;;;0.70;;
37483;SDS011;23337;52.212;9.926;2022-09-09T14:13:00;4.13;;;1.10;;
37483;SDS011;23337;52.212;9.926;2022-09-09T14:15:26;1.97;;;0.83;;
37483;SDS011;23337;52.212;9.926;2022-09-09T14:17:53;2.30;;;0.50;;
37483;SDS011;23337;52.212;9.926;2022-09-09T14:20:19;2.63;;;0.70;;
37483;SDS011;23337;52.212;9.926;2022-09-09T14:22:45;3.63;;;1.23;;
37483;SDS011;23337;52.212;9.926;2022-09-09T14:25:11;1.00;;;0.63;;
37483;SDS011;23337;52.212;9.926;2022-09-09T14:27:41;3.57;;;0.90;;
37483;SDS011;23337;52.212;9.926;2022-09-09T14:30:07;2.93;;;0.80;;
37483;SDS011;23337;52.212;9.926;2022-09-09T14:32:34;1.93;;;0.80;;
37483;SDS011;23337;52.212;9.926;2022-09-09T14:35:00;4.93;;;1.13;;
37483;SDS011;23337;52.212;9.926;2022-09-09T14:37:26;2.00;;;0.77;;
37483;SDS011;23337;52.212;9.926;2022-09-09T14:39:52;4.73;;;0.87;;
37483;SDS011;23337;52.212;9.926;2022-09-09T14:42:18;3.23;;;0.90;;
37483;SDS011;23337;52.212;9.926;2022-09-09T14:44:44;2.37;;;0.80;;
37483;SDS011;23337;52.212;9.926;2022-09-09T14:47:10;1.60;;;0.60;;
37483;SDS011;23337;52.212;9.926;2022-09-09T14:49:37;3.77;;;0.80;;
37483;SDS011;23337;52.212;9.926;2022-09-09T14:52:03;4.73;;;0.80;;
37483;SDS011;23337;52.212;9.926;2022-09-09T14:54:30;3.00;;;0.70;;
37483;SDS011;23337;52.212;9.926;2022-09-09T14:56:56;2.43;;;0.63;;
37483;SDS011;23337;52.212;9.926;2022-09-09T14:59:22;3.53;;;0.60;;
37483;SDS011;23337;52.212;9.926;2022-09-09T15:01:48;3.93;;;0.60;;
37483;SDS011;23337;52.212;9.926;2022-09-09T15:04:14;1.20;;;0.67;;
37483;SDS011;23337;52.212;9.926;2022-09-09T15:06:41;1.73;;;0.50;;
37483;SDS011;23337;52.212;9.926;2022-09-09T15:09:09;2.03;;;0.70;;
37483;SDS011;23337;52.212;9.926;2022-09-09T15:11:36;2.50;;;0.63;;
37483;SDS011;23337;52.212;9.926;2022-09-09T15:14:03;2.10;;;0.50;;
37483;SDS011;23337;52.212;9.926;2022-09-09T15:16:29;1.27;;;0.47;;
37483;SDS011;23337;52.212;9.926;2022-09-09T15:18:57;2.00;;;0.87;;
37483;SDS011;23337;52.212;9.926;2022-09-09T15:21:24;1.27;;;0.50;;
37483;SDS011;23337;52.212;9.926;2022-09-09T15:23:51;1.53;;;0.60;;
37483;SDS011;23337;52.212;9.926;2022-09-09T15:26:17;1.27;;;0.43;;
37483;SDS011;23337;52.212;9.926;2022-09-09T15:28:44;2.13;;;0.60;;
37483;SDS011;23337;52.212;9.926;2022-09-09T15:31:11;3.33;;;0.70;;
37483;SDS011;23337;52.212;9.926;2022-09-09T15:33:39;1.00;;;0.40;;
37483;SDS011;23337;52.212;9.926;2022-09-09T15:36:21;1.47;;;0.60;;
37483;SDS011;23337;52.212;9.926;2022-09-09T15:38:47;1.70;;;0.60;;
37483;SDS011;23337;52.212;9.926;2022-09-09T15:41:13;2.07;;;0.90;;
37483;SDS011;23337;52.212;9.926;2022-09-09T15:43:46;3.03;;;0.60;;
37483;SDS011;23337;52.212;9.926;2022-09-09T15:48:43;1.03;;;0.50;;
37483;SDS011;23337;52.212;9.926;2022-09-09T15:51:11;3.37;;;0.60;;
37483;SDS011;23337;52.212;9.926;2022-09-09T15:53:38;1.70;;;0.30;;
37483;SDS011;23337;52.212;9.926;2022-09-09T15:56:05;2.80;;;0.60;;
37483;SDS011;23337;52.212;9.926;2022-09-09T15:58:34;1.77;;;0.80;;
37483;SDS011;23337;52.212;9.926;2022-09-09T16:03:33;4.10;;;1.00;;
37483;SDS011;23337;52.212;9.926;2022-09-09T16:05:59;1.57;;;0.97;;
37483;SDS011;23337;52.212;9.926;2022-09-09T16:08:25;1.90;;;0.50;;
37483;SDS011;23337;52.212;9.926;2022-09-09T16:10:56;2.70;;;0.70;;
37483;SDS011;23337;52.212;9.926;2022-09-09T16:13:32;0.70;;;0.40;;
37483;SDS011;23337;52.212;9.926;2022-09-09T16:15:58;1.37;;;0.60;;
37483;SDS011;23337;52.212;9.926;2022-09-09T16:18:24;3.50;;;1.13;;
37483;SDS011;23337;52.212;9.926;2022-09-09T16:20:54;2.40;;;0.90;;
37483;SDS011;23337;52.212;9.926;2022-09-09T16:23:20;2.33;;;0.60;;
37483;SDS011;23337;52.212;9.926;2022-09-09T16:25:55;1.30;;;0.57;;
37483;SDS011;23337;52.212;9.926;2022-09-09T16:28:21;2.37;;;0.50;;
37483;SDS011;23337;52.212;9.926;2022-09-09T16:30:47;2.27;;;0.80;;
37483;SDS011;23337;52.212;9.926;2022-09-09T16:33:14;2.73;;;0.60;;
37483;SDS011;23337;52.212;9.926;2022-09-09T16:35:40;2.23;;;1.10;;
37483;SDS011;23337;52.212;9.926;2022-09-09T16:38:06;2.17;;;0.93;;
37483;SDS011;23337;52.212;9.926;2022-09-09T16:40:36;1.03;;;0.57;;
37483;SDS011;23337;52.212;9.926;2022-09-09T16:43:02;1.57;;;0.67;;
37483;SDS011;23337;52.212;9.926;2022-09-09T16:45:28;2.77;;;0.77;;
37483;SDS011;23337;52.212;9.926;2022-09-09T16:47:55;2.10;;;1.07;;
37483;SDS011;23337;52.212;9.926;2022-09-09T16:50:21;2.90;;;0.80;;